sensor_id;sensor_type;location;lat;lon;timestamp;P1;durP1;ratioP1;P2;durP2;ratioP2
83263;SDS011;73156;50.988;11.034;2024-02-26T00:00:58;50.13;;;22.10;;
83263;SDS011;73156;50.988;11.034;2024-02-26T00:03:23;57.97;;;23.33;;
83263;SDS011;73156;50.988;11.034;2024-02-26T00:05:48;53.57;;;22.97;;
83263;SDS011;73156;50.988;11.034;2024-02-26T00:08:13;51.43;;;23.50;;
83263;SDS011;73156;50.988;11.034;2024-02-26T00:10:39;54.33;;;23.20;;
83263;SDS011;73156;50.988;11.034;2024-02-26T00:13:04;57.87;;;22.57;;
83263;SDS011;73156;50.988;11.034;2024-02-26T00:15:29;55.40;;;23.63;;
83263;SDS011;73156;50.988;11.034;2024-02-26T00:17:55;52.63;;;22.13;;
83263;SDS011;73156;50.988;11.034;2024-02-26T00:20:20;55.63;;;24.90;;
83263;SDS011;73156;50.988;11.034;2024-02-26T00:22:45;54.20;;;22.90;;
83263;SDS011;73156;50.988;11.034;2024-02-26T00:25:10;53.22;;;22.83;;
83263;SDS011;73156;50.988;11.034;2024-02-26T00:27:37;53.58;;;23.00;;
83263;SDS011;73156;50.988;11.034;2024-02-26T00:30:04;50.28;;;22.55;;
83263;SDS011;73156;50.988;11.034;2024-02-26T00:32:30;46.95;;;21.45;;
83263;SDS011;73156;50.988;11.034;2024-02-26T00:34:55;55.33;;;23.37;;
83263;SDS011;73156;50.988;11.034;2024-02-26T00:37:20;57.80;;;24.13;;
83263;SDS011;73156;50.988;11.034;2024-02-26T00:39:45;57.30;;;24.03;;
83263;SDS011;73156;50.988;11.034;2024-02-26T00:42:11;50.53;;;21.90;;
83263;SDS011;73156;50.988;11.034;2024-02-26T00:44:37;47.70;;;21.33;;
83263;SDS011;73156;50.988;11.034;2024-02-26T00:47:02;51.67;;;22.40;;
83263;SDS011;73156;50.988;11.034;2024-02-26T00:49:27;56.90;;;23.67;;
83263;SDS011;73156;50.988;11.034;2024-02-26T00:51:52;51.10;;;23.03;;
83263;SDS011;73156;50.988;11.034;2024-02-26T00:54:18;51.17;;;22.03;;
83263;SDS011;73156;50.988;11.034;2024-02-26T00:56:43;51.75;;;22.42;;
83263;SDS011;73156;50.988;11.034;2024-02-26T00:59:09;54.35;;;22.40;;
83263;SDS011;73156;50.988;11.034;2024-02-26T01:01:34;49.97;;;21.87;;
83263;SDS011;73156;50.988;11.034;2024-02-26T01:04:00;53.75;;;22.90;;
83263;SDS011;73156;50.988;11.034;2024-02-26T01:06:25;53.03;;;21.53;;
83263;SDS011;73156;50.988;11.034;2024-02-26T01:08:50;50.23;;;21.50;;
83263;SDS011;73156;50.988;11.034;2024-02-26T01:11:15;56.17;;;23.27;;
83263;SDS011;73156;50.988;11.034;2024-02-26T01:13:41;53.58;;;22.23;;
83263;SDS011;73156;50.988;11.034;2024-02-26T01:16:06;55.07;;;23.27;;
83263;SDS011;73156;50.988;11.034;2024-02-26T01:18:31;49.43;;;21.03;;
83263;SDS011;73156;50.988;11.034;2024-02-26T01:20:57;50.13;;;21.23;;
83263;SDS011;73156;50.988;11.034;2024-02-26T01:23:22;50.00;;;21.02;;
83263;SDS011;73156;50.988;11.034;2024-02-26T01:25:47;51.73;;;22.40;;
83263;SDS011;73156;50.988;11.034;2024-02-26T01:28:13;49.45;;;21.60;;
83263;SDS011;73156;50.988;11.034;2024-02-26T01:30:39;56.60;;;21.48;;
83263;SDS011;73156;50.988;11.034;2024-02-26T01:33:04;51.77;;;21.00;;
83263;SDS011;73156;50.988;11.034;2024-02-26T01:35:29;54.87;;;21.53;;
83263;SDS011;73156;50.988;11.034;2024-02-26T01:37:55;52.77;;;22.50;;
83263;SDS011;73156;50.988;11.034;2024-02-26T01:40:21;46.08;;;20.38;;
83263;SDS011;73156;50.988;11.034;2024-02-26T01:42:46;48.42;;;19.80;;
83263;SDS011;73156;50.988;11.034;2024-02-26T01:45:16;50.35;;;21.45;;
83263;SDS011;73156;50.988;11.034;2024-02-26T01:47:47;48.97;;;21.05;;
83263;SDS011;73156;50.988;11.034;2024-02-26T01:50:15;49.38;;;20.35;;
83263;SDS011;73156;50.988;11.034;2024-02-26T01:52:40;47.08;;;19.88;;
83263;SDS011;73156;50.988;11.034;2024-02-26T01:55:06;50.53;;;22.20;;
83263;SDS011;73156;50.988;11.034;2024-02-26T01:57:33;47.58;;;19.35;;
83263;SDS011;73156;50.988;11.034;2024-02-26T01:59:58;47.35;;;20.20;;
83263;SDS011;73156;50.988;11.034;2024-02-26T02:02:24;48.13;;;20.97;;
83263;SDS011;73156;50.988;11.034;2024-02-26T02:04:50;50.25;;;21.38;;
83263;SDS011;73156;50.988;11.034;2024-02-26T02:07:15;45.17;;;19.48;;
83263;SDS011;73156;50.988;11.034;2024-02-26T02:09:41;44.58;;;19.80;;
83263;SDS011;73156;50.988;11.034;2024-02-26T02:12:06;49.30;;;21.23;;
83263;SDS011;73156;50.988;11.034;2024-02-26T02:14:31;45.70;;;19.27;;
83263;SDS011;73156;50.988;11.034;2024-02-26T02:16:57;54.90;;;21.40;;
83263;SDS011;73156;50.988;11.034;2024-02-26T02:19:22;48.17;;;19.13;;
83263;SDS011;73156;50.988;11.034;2024-02-26T02:21:47;47.15;;;19.58;;
83263;SDS011;73156;50.988;11.034;2024-02-26T02:24:12;45.90;;;19.23;;
83263;SDS011;73156;50.988;11.034;2024-02-26T02:26:38;43.77;;;19.00;;
83263;SDS011;73156;50.988;11.034;2024-02-26T02:29:03;45.97;;;19.10;;
83263;SDS011;73156;50.988;11.034;2024-02-26T02:31:31;43.63;;;18.17;;
83263;SDS011;73156;50.988;11.034;2024-02-26T02:33:57;47.13;;;19.02;;
83263;SDS011;73156;50.988;11.034;2024-02-26T02:36:22;41.88;;;18.13;;
83263;SDS011;73156;50.988;11.034;2024-02-26T02:38:48;48.28;;;18.90;;
83263;SDS011;73156;50.988;11.034;2024-02-26T02:41:15;42.80;;;18.13;;
83263;SDS011;73156;50.988;11.034;2024-02-26T02:43:40;44.50;;;18.05;;
83263;SDS011;73156;50.988;11.034;2024-02-26T02:46:05;45.97;;;19.20;;
83263;SDS011;73156;50.988;11.034;2024-02-26T02:48:31;44.10;;;18.67;;
83263;SDS011;73156;50.988;11.034;2024-02-26T02:50:56;39.80;;;17.07;;
83263;SDS011;73156;50.988;11.034;2024-02-26T02:53:21;43.73;;;18.77;;
83263;SDS011;73156;50.988;11.034;2024-02-26T02:55:46;39.17;;;17.47;;
83263;SDS011;73156;50.988;11.034;2024-02-26T02:58:12;44.45;;;18.00;;
83263;SDS011;73156;50.988;11.034;2024-02-26T03:00:37;44.33;;;17.70;;
83263;SDS011;73156;50.988;11.034;2024-02-26T03:03:02;40.80;;;16.83;;
83263;SDS011;73156;50.988;11.034;2024-02-26T03:05:29;43.53;;;18.95;;
83263;SDS011;73156;50.988;11.034;2024-02-26T03:07:54;38.13;;;16.97;;
83263;SDS011;73156;50.988;11.034;2024-02-26T03:10:19;41.60;;;16.83;;
83263;SDS011;73156;50.988;11.034;2024-02-26T03:12:45;41.07;;;16.80;;
83263;SDS011;73156;50.988;11.034;2024-02-26T03:15:10;38.75;;;16.42;;
83263;SDS011;73156;50.988;11.034;2024-02-26T03:17:36;43.42;;;17.75;;
83263;SDS011;73156;50.988;11.034;2024-02-26T03:20:02;43.08;;;17.05;;
83263;SDS011;73156;50.988;11.034;2024-02-26T03:24:55;40.37;;;16.40;;
83263;SDS011;73156;50.988;11.034;2024-02-26T03:27:20;40.00;;;16.17;;
83263;SDS011;73156;50.988;11.034;2024-02-26T03:29:45;41.73;;;16.20;;
83263;SDS011;73156;50.988;11.034;2024-02-26T03:32:11;38.13;;;16.17;;
83263;SDS011;73156;50.988;11.034;2024-02-26T03:34:36;37.63;;;16.70;;
83263;SDS011;73156;50.988;11.034;2024-02-26T03:37:03;35.40;;;15.82;;
83263;SDS011;73156;50.988;11.034;2024-02-26T03:39:29;38.50;;;15.38;;
83263;SDS011;73156;50.988;11.034;2024-02-26T03:41:54;37.90;;;15.50;;
83263;SDS011;73156;50.988;11.034;2024-02-26T03:44:19;34.93;;;15.20;;
83263;SDS011;73156;50.988;11.034;2024-02-26T03:46:44;32.40;;;13.97;;
83263;SDS011;73156;50.988;11.034;2024-02-26T03:49:10;36.80;;;15.40;;
83263;SDS011;73156;50.988;11.034;2024-02-26T03:51:35;34.38;;;14.85;;
83263;SDS011;73156;50.988;11.034;2024-02-26T03:54:00;34.40;;;14.90;;
83263;SDS011;73156;50.988;11.034;2024-02-26T03:56:26;37.45;;;15.48;;
83263;SDS011;73156;50.988;11.034;2024-02-26T03:58:52;37.38;;;14.60;;
83263;SDS011;73156;50.988;11.034;2024-02-26T04:01:18;34.70;;;15.75;;
83263;SDS011;73156;50.988;11.034;2024-02-26T04:03:43;36.50;;;15.03;;
83263;SDS011;73156;50.988;11.034;2024-02-26T04:06:09;37.72;;;15.65;;
83263;SDS011;73156;50.988;11.034;2024-02-26T04:08:43;33.67;;;14.73;;
83263;SDS011;73156;50.988;11.034;2024-02-26T04:11:08;34.35;;;15.85;;
83263;SDS011;73156;50.988;11.034;2024-02-26T04:13:33;33.30;;;14.00;;
83263;SDS011;73156;50.988;11.034;2024-02-26T04:15:59;34.15;;;14.25;;
83263;SDS011;73156;50.988;11.034;2024-02-26T04:18:26;37.42;;;14.45;;
83263;SDS011;73156;50.988;11.034;2024-02-26T04:20:52;33.42;;;13.95;;
83263;SDS011;73156;50.988;11.034;2024-02-26T04:23:17;33.43;;;15.13;;
83263;SDS011;73156;50.988;11.034;2024-02-26T04:25:45;30.00;;;13.35;;
83263;SDS011;73156;50.988;11.034;2024-02-26T04:28:11;29.95;;;13.55;;
83263;SDS011;73156;50.988;11.034;2024-02-26T04:30:37;33.20;;;13.05;;
83263;SDS011;73156;50.988;11.034;2024-02-26T04:33:03;30.50;;;14.18;;
83263;SDS011;73156;50.988;11.034;2024-02-26T04:35:28;33.17;;;13.07;;
83263;SDS011;73156;50.988;11.034;2024-02-26T04:37:53;34.47;;;13.67;;
83263;SDS011;73156;50.988;11.034;2024-02-26T04:40:18;29.27;;;12.55;;
83263;SDS011;73156;50.988;11.034;2024-02-26T04:42:44;30.60;;;13.00;;
83263;SDS011;73156;50.988;11.034;2024-02-26T04:45:09;30.00;;;12.77;;
83263;SDS011;73156;50.988;11.034;2024-02-26T04:47:34;31.70;;;13.13;;
83263;SDS011;73156;50.988;11.034;2024-02-26T04:50:00;32.10;;;13.35;;
83263;SDS011;73156;50.988;11.034;2024-02-26T04:52:25;27.30;;;12.23;;
83263;SDS011;73156;50.988;11.034;2024-02-26T04:54:50;31.75;;;12.98;;
83263;SDS011;73156;50.988;11.034;2024-02-26T04:57:16;30.45;;;12.48;;
83263;SDS011;73156;50.988;11.034;2024-02-26T04:59:43;27.73;;;11.90;;
83263;SDS011;73156;50.988;11.034;2024-02-26T05:02:09;31.58;;;13.07;;
83263;SDS011;73156;50.988;11.034;2024-02-26T05:04:34;28.65;;;12.00;;
83263;SDS011;73156;50.988;11.034;2024-02-26T05:07:00;29.27;;;12.48;;
83263;SDS011;73156;50.988;11.034;2024-02-26T05:09:25;28.85;;;11.32;;
83263;SDS011;73156;50.988;11.034;2024-02-26T05:11:50;27.93;;;12.80;;
83263;SDS011;73156;50.988;11.034;2024-02-26T05:14:16;28.87;;;12.40;;
83263;SDS011;73156;50.988;11.034;2024-02-26T05:16:41;25.90;;;11.77;;
83263;SDS011;73156;50.988;11.034;2024-02-26T05:19:06;29.60;;;12.40;;
83263;SDS011;73156;50.988;11.034;2024-02-26T05:21:31;31.02;;;12.68;;
83263;SDS011;73156;50.988;11.034;2024-02-26T05:23:56;27.30;;;11.23;;
83263;SDS011;73156;50.988;11.034;2024-02-26T05:26:22;25.45;;;11.18;;
83263;SDS011;73156;50.988;11.034;2024-02-26T05:28:48;26.35;;;11.07;;
83263;SDS011;73156;50.988;11.034;2024-02-26T05:31:14;23.17;;;10.75;;
83263;SDS011;73156;50.988;11.034;2024-02-26T05:33:39;27.73;;;11.38;;
83263;SDS011;73156;50.988;11.034;2024-02-26T05:36:08;29.98;;;11.00;;
83263;SDS011;73156;50.988;11.034;2024-02-26T05:38:33;28.50;;;11.05;;
83263;SDS011;73156;50.988;11.034;2024-02-26T05:40:59;27.47;;;11.20;;
83263;SDS011;73156;50.988;11.034;2024-02-26T05:43:24;26.92;;;11.40;;
83263;SDS011;73156;50.988;11.034;2024-02-26T05:45:50;27.98;;;12.05;;
83263;SDS011;73156;50.988;11.034;2024-02-26T05:48:15;23.90;;;10.45;;
83263;SDS011;73156;50.988;11.034;2024-02-26T05:50:41;24.58;;;10.40;;
83263;SDS011;73156;50.988;11.034;2024-02-26T05:53:06;23.02;;;9.93;;
83263;SDS011;73156;50.988;11.034;2024-02-26T05:55:31;23.87;;;9.87;;
83263;SDS011;73156;50.988;11.034;2024-02-26T05:57:56;20.97;;;10.40;;
83263;SDS011;73156;50.988;11.034;2024-02-26T06:00:22;25.23;;;10.38;;
83263;SDS011;73156;50.988;11.034;2024-02-26T06:02:47;25.57;;;10.13;;
83263;SDS011;73156;50.988;11.034;2024-02-26T06:05:12;21.90;;;9.60;;
83263;SDS011;73156;50.988;11.034;2024-02-26T06:07:37;24.27;;;10.25;;
83263;SDS011;73156;50.988;11.034;2024-02-26T06:10:03;21.57;;;10.17;;
83263;SDS011;73156;50.988;11.034;2024-02-26T06:12:30;23.38;;;9.40;;
83263;SDS011;73156;50.988;11.034;2024-02-26T06:14:56;23.13;;;9.70;;
83263;SDS011;73156;50.988;11.034;2024-02-26T06:17:21;25.40;;;10.88;;
83263;SDS011;73156;50.988;11.034;2024-02-26T06:19:46;23.37;;;10.10;;
83263;SDS011;73156;50.988;11.034;2024-02-26T06:22:12;23.37;;;10.40;;
83263;SDS011;73156;50.988;11.034;2024-02-26T06:24:37;20.73;;;9.87;;
83263;SDS011;73156;50.988;11.034;2024-02-26T06:27:02;26.30;;;11.13;;
83263;SDS011;73156;50.988;11.034;2024-02-26T06:29:28;24.38;;;10.65;;
83263;SDS011;73156;50.988;11.034;2024-02-26T06:31:53;20.98;;;10.75;;
83263;SDS011;73156;50.988;11.034;2024-02-26T06:34:18;22.57;;;9.90;;
83263;SDS011;73156;50.988;11.034;2024-02-26T06:36:44;24.03;;;9.90;;
83263;SDS011;73156;50.988;11.034;2024-02-26T06:39:09;24.48;;;11.07;;
83263;SDS011;73156;50.988;11.034;2024-02-26T06:41:35;28.48;;;11.45;;
83263;SDS011;73156;50.988;11.034;2024-02-26T06:44:01;25.85;;;10.93;;
83263;SDS011;73156;50.988;11.034;2024-02-26T06:46:27;29.05;;;11.77;;
83263;SDS011;73156;50.988;11.034;2024-02-26T06:48:55;24.75;;;11.20;;
83263;SDS011;73156;50.988;11.034;2024-02-26T06:51:20;26.42;;;11.27;;
83263;SDS011;73156;50.988;11.034;2024-02-26T06:53:46;27.77;;;11.73;;
83263;SDS011;73156;50.988;11.034;2024-02-26T06:56:11;28.30;;;12.47;;
83263;SDS011;73156;50.988;11.034;2024-02-26T06:58:36;29.73;;;12.80;;
83263;SDS011;73156;50.988;11.034;2024-02-26T07:01:01;30.40;;;12.97;;
83263;SDS011;73156;50.988;11.034;2024-02-26T07:03:27;30.17;;;14.13;;
83263;SDS011;73156;50.988;11.034;2024-02-26T07:05:52;32.80;;;14.17;;
83263;SDS011;73156;50.988;11.034;2024-02-26T07:08:17;35.55;;;14.35;;
83263;SDS011;73156;50.988;11.034;2024-02-26T07:10:43;34.65;;;13.27;;
83263;SDS011;73156;50.988;11.034;2024-02-26T07:13:09;32.95;;;15.35;;
83263;SDS011;73156;50.988;11.034;2024-02-26T07:15:34;34.95;;;14.93;;
83263;SDS011;73156;50.988;11.034;2024-02-26T07:17:59;38.22;;;15.40;;
83263;SDS011;73156;50.988;11.034;2024-02-26T07:20:28;34.00;;;13.80;;
83263;SDS011;73156;50.988;11.034;2024-02-26T07:22:54;34.15;;;14.52;;
83263;SDS011;73156;50.988;11.034;2024-02-26T07:25:19;34.83;;;14.90;;
83263;SDS011;73156;50.988;11.034;2024-02-26T07:27:46;44.08;;;14.30;;
83263;SDS011;73156;50.988;11.034;2024-02-26T07:30:11;33.70;;;13.63;;
83263;SDS011;73156;50.988;11.034;2024-02-26T07:32:37;34.92;;;14.52;;
83263;SDS011;73156;50.988;11.034;2024-02-26T07:35:02;40.10;;;15.02;;
83263;SDS011;73156;50.988;11.034;2024-02-26T07:37:27;37.58;;;15.10;;
83263;SDS011;73156;50.988;11.034;2024-02-26T07:39:53;38.33;;;14.80;;
83263;SDS011;73156;50.988;11.034;2024-02-26T07:42:19;33.65;;;14.00;;
83263;SDS011;73156;50.988;11.034;2024-02-26T07:44:44;42.28;;;14.70;;
83263;SDS011;73156;50.988;11.034;2024-02-26T07:47:09;34.03;;;14.57;;
83263;SDS011;73156;50.988;11.034;2024-02-26T07:49:35;38.47;;;15.00;;
83263;SDS011;73156;50.988;11.034;2024-02-26T07:52:00;38.77;;;14.80;;
83263;SDS011;73156;50.988;11.034;2024-02-26T07:54:25;36.10;;;14.57;;
83263;SDS011;73156;50.988;11.034;2024-02-26T07:56:50;36.93;;;14.57;;
83263;SDS011;73156;50.988;11.034;2024-02-26T07:59:16;36.80;;;14.77;;
83263;SDS011;73156;50.988;11.034;2024-02-26T08:01:41;37.77;;;15.73;;
83263;SDS011;73156;50.988;11.034;2024-02-26T08:04:06;41.15;;;16.90;;
83263;SDS011;73156;50.988;11.034;2024-02-26T08:06:32;40.73;;;17.27;;
83263;SDS011;73156;50.988;11.034;2024-02-26T08:08:57;52.63;;;21.47;;
83263;SDS011;73156;50.988;11.034;2024-02-26T08:11:22;46.67;;;19.00;;
83263;SDS011;73156;50.988;11.034;2024-02-26T08:13:47;46.63;;;18.77;;
83263;SDS011;73156;50.988;11.034;2024-02-26T08:16:13;53.33;;;22.20;;
83263;SDS011;73156;50.988;11.034;2024-02-26T08:18:38;47.57;;;20.07;;
83263;SDS011;73156;50.988;11.034;2024-02-26T08:21:03;50.80;;;21.23;;
83263;SDS011;73156;50.988;11.034;2024-02-26T08:23:29;50.90;;;20.95;;
83263;SDS011;73156;50.988;11.034;2024-02-26T08:25:54;55.67;;;21.55;;
83263;SDS011;73156;50.988;11.034;2024-02-26T08:28:19;55.15;;;22.60;;
83263;SDS011;73156;50.988;11.034;2024-02-26T08:30:45;54.20;;;21.57;;
83263;SDS011;73156;50.988;11.034;2024-02-26T08:33:10;51.92;;;22.23;;
83263;SDS011;73156;50.988;11.034;2024-02-26T08:35:36;56.67;;;22.23;;
83263;SDS011;73156;50.988;11.034;2024-02-26T08:38:01;50.97;;;21.40;;
83263;SDS011;73156;50.988;11.034;2024-02-26T08:40:27;55.72;;;25.20;;
83263;SDS011;73156;50.988;11.034;2024-02-26T08:42:53;57.90;;;23.55;;
83263;SDS011;73156;50.988;11.034;2024-02-26T08:45:18;59.37;;;22.80;;
83263;SDS011;73156;50.988;11.034;2024-02-26T08:47:44;54.77;;;22.33;;
83263;SDS011;73156;50.988;11.034;2024-02-26T08:50:10;56.40;;;22.52;;
83263;SDS011;73156;50.988;11.034;2024-02-26T08:52:37;54.40;;;22.17;;
83263;SDS011;73156;50.988;11.034;2024-02-26T08:55:02;53.30;;;22.98;;
83263;SDS011;73156;50.988;11.034;2024-02-26T08:57:28;66.30;;;24.48;;
83263;SDS011;73156;50.988;11.034;2024-02-26T08:59:53;56.07;;;23.87;;
83263;SDS011;73156;50.988;11.034;2024-02-26T09:02:18;57.77;;;23.50;;
83263;SDS011;73156;50.988;11.034;2024-02-26T09:04:44;56.40;;;22.80;;
83263;SDS011;73156;50.988;11.034;2024-02-26T09:07:10;57.33;;;23.45;;
83263;SDS011;73156;50.988;11.034;2024-02-26T09:09:35;57.43;;;23.30;;
83263;SDS011;73156;50.988;11.034;2024-02-26T09:12:00;59.70;;;23.53;;
83263;SDS011;73156;50.988;11.034;2024-02-26T09:14:26;54.78;;;23.33;;
83263;SDS011;73156;50.988;11.034;2024-02-26T09:16:51;57.90;;;25.27;;
83263;SDS011;73156;50.988;11.034;2024-02-26T09:19:17;53.65;;;23.58;;
83263;SDS011;73156;50.988;11.034;2024-02-26T09:21:45;55.70;;;23.67;;
83263;SDS011;73156;50.988;11.034;2024-02-26T09:24:11;59.30;;;25.27;;
83263;SDS011;73156;50.988;11.034;2024-02-26T09:26:37;54.00;;;23.90;;
83263;SDS011;73156;50.988;11.034;2024-02-26T09:29:02;61.65;;;25.45;;
83263;SDS011;73156;50.988;11.034;2024-02-26T09:31:29;57.95;;;24.35;;
83263;SDS011;73156;50.988;11.034;2024-02-26T09:33:54;64.07;;;25.35;;
83263;SDS011;73156;50.988;11.034;2024-02-26T09:36:19;62.17;;;24.73;;
83263;SDS011;73156;50.988;11.034;2024-02-26T09:38:44;63.17;;;25.57;;
83263;SDS011;73156;50.988;11.034;2024-02-26T09:41:14;59.63;;;25.03;;
83263;SDS011;73156;50.988;11.034;2024-02-26T09:43:41;60.83;;;26.15;;
83263;SDS011;73156;50.988;11.034;2024-02-26T09:46:09;64.25;;;26.05;;
83263;SDS011;73156;50.988;11.034;2024-02-26T09:48:35;58.83;;;26.17;;
83263;SDS011;73156;50.988;11.034;2024-02-26T09:51:02;61.47;;;25.15;;
83263;SDS011;73156;50.988;11.034;2024-02-26T09:53:28;60.13;;;25.55;;
83263;SDS011;73156;50.988;11.034;2024-02-26T09:55:54;60.05;;;24.50;;
83263;SDS011;73156;50.988;11.034;2024-02-26T09:58:19;59.13;;;24.63;;
83263;SDS011;73156;50.988;11.034;2024-02-26T10:00:46;54.33;;;24.80;;
83263;SDS011;73156;50.988;11.034;2024-02-26T10:03:17;62.13;;;25.55;;
83263;SDS011;73156;50.988;11.034;2024-02-26T10:05:46;60.20;;;26.58;;
83263;SDS011;73156;50.988;11.034;2024-02-26T10:08:12;59.92;;;24.83;;
83263;SDS011;73156;50.988;11.034;2024-02-26T10:10:39;57.00;;;24.90;;
83263;SDS011;73156;50.988;11.034;2024-02-26T10:13:04;57.33;;;25.13;;
83263;SDS011;73156;50.988;11.034;2024-02-26T10:15:35;54.10;;;24.02;;
83263;SDS011;73156;50.988;11.034;2024-02-26T10:18:03;59.00;;;25.02;;
83263;SDS011;73156;50.988;11.034;2024-02-26T10:20:29;62.30;;;26.00;;
83263;SDS011;73156;50.988;11.034;2024-02-26T10:22:56;60.55;;;24.05;;
83263;SDS011;73156;50.988;11.034;2024-02-26T10:25:22;55.88;;;24.67;;
83263;SDS011;73156;50.988;11.034;2024-02-26T10:27:47;57.73;;;24.87;;
83263;SDS011;73156;50.988;11.034;2024-02-26T10:32:41;66.40;;;27.00;;
83263;SDS011;73156;50.988;11.034;2024-02-26T10:35:09;64.43;;;26.70;;
83263;SDS011;73156;50.988;11.034;2024-02-26T10:37:34;59.10;;;24.98;;
83263;SDS011;73156;50.988;11.034;2024-02-26T10:40:00;63.17;;;26.27;;
83263;SDS011;73156;50.988;11.034;2024-02-26T10:42:26;58.35;;;25.00;;
83263;SDS011;73156;50.988;11.034;2024-02-26T10:44:51;59.87;;;24.90;;
83263;SDS011;73156;50.988;11.034;2024-02-26T10:47:16;58.80;;;24.60;;
83263;SDS011;73156;50.988;11.034;2024-02-26T10:49:45;60.22;;;26.58;;
83263;SDS011;73156;50.988;11.034;2024-02-26T10:52:13;55.80;;;23.35;;
83263;SDS011;73156;50.988;11.034;2024-02-26T10:54:40;54.53;;;24.05;;
83263;SDS011;73156;50.988;11.034;2024-02-26T10:57:08;57.30;;;24.10;;
83263;SDS011;73156;50.988;11.034;2024-02-26T10:59:34;58.30;;;25.73;;
83263;SDS011;73156;50.988;11.034;2024-02-26T11:02:00;59.05;;;24.88;;
83263;SDS011;73156;50.988;11.034;2024-02-26T11:04:26;62.95;;;26.70;;
83263;SDS011;73156;50.988;11.034;2024-02-26T11:06:53;58.58;;;25.50;;
83263;SDS011;73156;50.988;11.034;2024-02-26T11:09:20;57.53;;;25.40;;
83263;SDS011;73156;50.988;11.034;2024-02-26T11:11:47;58.15;;;25.75;;
83263;SDS011;73156;50.988;11.034;2024-02-26T11:14:13;56.78;;;24.63;;
83263;SDS011;73156;50.988;11.034;2024-02-26T11:16:39;57.15;;;25.02;;
83263;SDS011;73156;50.988;11.034;2024-02-26T11:19:06;59.58;;;26.48;;
83263;SDS011;73156;50.988;11.034;2024-02-26T11:21:34;58.00;;;25.48;;
83263;SDS011;73156;50.988;11.034;2024-02-26T11:24:13;56.20;;;25.33;;
83263;SDS011;73156;50.988;11.034;2024-02-26T11:26:47;58.22;;;24.85;;
83263;SDS011;73156;50.988;11.034;2024-02-26T11:29:16;60.60;;;27.00;;
83263;SDS011;73156;50.988;11.034;2024-02-26T11:31:43;55.38;;;24.65;;
83263;SDS011;73156;50.988;11.034;2024-02-26T11:34:09;61.55;;;26.08;;
83263;SDS011;73156;50.988;11.034;2024-02-26T11:36:35;56.60;;;24.10;;
83263;SDS011;73156;50.988;11.034;2024-02-26T11:39:02;61.67;;;26.10;;
83263;SDS011;73156;50.988;11.034;2024-02-26T11:41:29;60.22;;;27.70;;
83263;SDS011;73156;50.988;11.034;2024-02-26T11:49:03;53.70;;;25.17;;
83263;SDS011;73156;50.988;11.034;2024-02-26T11:51:50;56.83;;;24.50;;
83263;SDS011;73156;50.988;11.034;2024-02-26T11:54:37;54.50;;;23.88;;
83263;SDS011;73156;50.988;11.034;2024-02-26T11:59:54;55.60;;;24.65;;
83263;SDS011;73156;50.988;11.034;2024-02-26T12:05:25;54.13;;;24.58;;
83263;SDS011;73156;50.988;11.034;2024-02-26T12:07:53;55.58;;;25.35;;
83263;SDS011;73156;50.988;11.034;2024-02-26T12:10:26;55.53;;;25.48;;
83263;SDS011;73156;50.988;11.034;2024-02-26T12:12:59;52.40;;;24.73;;
83263;SDS011;73156;50.988;11.034;2024-02-26T12:15:31;55.70;;;25.67;;
83263;SDS011;73156;50.988;11.034;2024-02-26T12:18:01;56.92;;;25.05;;
83263;SDS011;73156;50.988;11.034;2024-02-26T12:20:27;52.97;;;24.17;;
83263;SDS011;73156;50.988;11.034;2024-02-26T12:22:53;54.25;;;25.25;;
83263;SDS011;73156;50.988;11.034;2024-02-26T12:25:22;52.90;;;24.23;;
83263;SDS011;73156;50.988;11.034;2024-02-26T12:27:50;58.03;;;25.50;;
83263;SDS011;73156;50.988;11.034;2024-02-26T12:30:16;53.47;;;24.55;;
83263;SDS011;73156;50.988;11.034;2024-02-26T12:32:41;55.03;;;24.77;;
83263;SDS011;73156;50.988;11.034;2024-02-26T12:35:07;54.80;;;24.77;;
83263;SDS011;73156;50.988;11.034;2024-02-26T12:37:32;53.60;;;24.42;;
83263;SDS011;73156;50.988;11.034;2024-02-26T12:39:57;53.97;;;24.20;;
83263;SDS011;73156;50.988;11.034;2024-02-26T12:42:23;54.80;;;23.92;;
83263;SDS011;73156;50.988;11.034;2024-02-26T12:44:49;52.33;;;23.67;;
83263;SDS011;73156;50.988;11.034;2024-02-26T12:47:15;55.80;;;24.58;;
83263;SDS011;73156;50.988;11.034;2024-02-26T12:49:42;51.90;;;23.42;;
83263;SDS011;73156;50.988;11.034;2024-02-26T12:52:08;55.00;;;24.48;;
83263;SDS011;73156;50.988;11.034;2024-02-26T12:54:34;55.58;;;23.90;;
83263;SDS011;73156;50.988;11.034;2024-02-26T12:57:04;50.30;;;23.73;;
83263;SDS011;73156;50.988;11.034;2024-02-26T12:59:31;50.33;;;23.60;;
83263;SDS011;73156;50.988;11.034;2024-02-26T13:01:59;48.17;;;22.98;;
83263;SDS011;73156;50.988;11.034;2024-02-26T13:04:25;52.88;;;24.65;;
83263;SDS011;73156;50.988;11.034;2024-02-26T13:06:52;53.25;;;25.13;;
83263;SDS011;73156;50.988;11.034;2024-02-26T13:09:18;51.35;;;23.02;;
83263;SDS011;73156;50.988;11.034;2024-02-26T13:11:44;51.65;;;22.77;;
83263;SDS011;73156;50.988;11.034;2024-02-26T13:14:19;50.35;;;25.13;;
83263;SDS011;73156;50.988;11.034;2024-02-26T13:16:45;51.25;;;22.70;;
83263;SDS011;73156;50.988;11.034;2024-02-26T13:19:10;47.57;;;22.67;;
83263;SDS011;73156;50.988;11.034;2024-02-26T13:21:35;48.97;;;22.67;;
83263;SDS011;73156;50.988;11.034;2024-02-26T13:24:00;48.00;;;22.57;;
83263;SDS011;73156;50.988;11.034;2024-02-26T13:26:26;52.92;;;23.33;;
83263;SDS011;73156;50.988;11.034;2024-02-26T13:29:01;52.67;;;23.40;;
83263;SDS011;73156;50.988;11.034;2024-02-26T13:31:28;48.22;;;22.35;;
83263;SDS011;73156;50.988;11.034;2024-02-26T13:33:53;53.73;;;23.20;;
83263;SDS011;73156;50.988;11.034;2024-02-26T13:36:20;47.70;;;22.60;;
83263;SDS011;73156;50.988;11.034;2024-02-26T13:38:53;51.88;;;23.65;;
83263;SDS011;73156;50.988;11.034;2024-02-26T13:41:19;50.40;;;23.00;;
83263;SDS011;73156;50.988;11.034;2024-02-26T13:43:45;44.90;;;21.88;;
83263;SDS011;73156;50.988;11.034;2024-02-26T13:46:11;48.72;;;22.83;;
83263;SDS011;73156;50.988;11.034;2024-02-26T13:48:38;50.17;;;22.38;;
83263;SDS011;73156;50.988;11.034;2024-02-26T13:51:04;49.47;;;22.90;;
83263;SDS011;73156;50.988;11.034;2024-02-26T13:53:29;42.70;;;22.00;;
83263;SDS011;73156;50.988;11.034;2024-02-26T13:55:54;46.33;;;21.60;;
83263;SDS011;73156;50.988;11.034;2024-02-26T13:58:20;48.33;;;22.20;;
83263;SDS011;73156;50.988;11.034;2024-02-26T14:00:48;44.42;;;20.38;;
83263;SDS011;73156;50.988;11.034;2024-02-26T14:03:14;45.75;;;21.23;;
83263;SDS011;73156;50.988;11.034;2024-02-26T14:05:39;50.13;;;22.77;;
83263;SDS011;73156;50.988;11.034;2024-02-26T14:08:05;47.50;;;20.58;;
83263;SDS011;73156;50.988;11.034;2024-02-26T14:10:31;45.90;;;22.40;;
83263;SDS011;73156;50.988;11.034;2024-02-26T14:12:56;47.25;;;22.40;;
83263;SDS011;73156;50.988;11.034;2024-02-26T14:15:22;45.08;;;21.13;;
83263;SDS011;73156;50.988;11.034;2024-02-26T14:17:49;42.33;;;19.38;;